Country
Station

 

Weather  for  Chattanooga, Lovell Field  -  United States    United States

  
23 °C (73 °F)
    
 
 

Current METAR for Chattanooga, Lovell Field is :

KCHA 171053Z 00000KT 10SM SCT007 SCT100 SCT200 BKN250 23/21 A3002 RMK AO2 SLP157 FU SCT007 T02280211 $

 

This is a report for Chattanooga, Lovell Field - United States.
 
The report was made 13 minutes ago, at 10:53 UTC .
The wind was calm.
 
The temperature was 23 °C (73 °F), with a dew-point at 21 °C (70 °F).
The temperature felt like 22 °C (71 °F).
 
The atmospheric pressure was 1017 hPa (30.02 inHg).
The relative humidity was 88.5%.
 
There were scattered clouds at a height of 213 meters (700 feet), scattered clouds at a height of 3048 meters (10000 feet) and scattered clouds at a height of 6096 meters (20000 feet).
 
The overall visibility was 16.1 kilometers (10.0 miles).
 

 
 
 
 

Country :   A   B   C   D   E   F   G   H   I   J   K   L   M   N   O   P   Q   R   S   T   U   V   W   Y   Z

 

Site Info  |  Disclaimer  |  Credits  |  Privacy
Contact us  |  Add to favorites
© 2013-2018 METARs - All rights reserved